Tie Plant, MS (38960)

4:08 PM CDT on September 01, 2014 (GMT -0500)
Greenwood-Leflore | Change Station
CLOSE
Current Station
Airport
Location: Greenwood,
Elevation: 154 ft
Nearby Weather Stations

Elev 154 ft 33.49 °N, 90.08 °W | Updated 15 minutes ago

Clear
Clear
91 °F
Feels Like 98 °F
N
8
Wind Variable Wind from South

Today
High -- | Low -- °F
--% Chance of Precip.
Yesterday
High -- | Low -- °F
Precip. -- in
6:33 AM 7:24 PM
Waxing Crescent, 44% visible
Pressure 29.99 in
Visibility 10.0 miles
Clouds Clear
Heat Index 98 °F
Dew Point 72 °F
Humidity 53%
Rainfall 0.00 in
Snow Depth Not available.
UV 6 out of 12
Pollen 10.10 out of 12
Air Quality Not available.
Flu Activity Not available.
METAR KGWO 012053Z AUTO 19007KT 10SM CLR 33/22 A3000 RMK AO2 SLP154 T03280222 58019 TSNO

More Conditions Fewer Conditions

Pressure 29.99 in
Visibility 10.0 miles
Clouds Clear
Heat Index 98 °F
Dew Point 72 °F
Humidity 53%
Rainfall 0.00 in
Snow Depth Not available.
UV 6 out of 12
Pollen 10.10 out of 12
Air Quality Not available.
Flu Activity Not available.
METAR KGWO 012053Z AUTO 19007KT 10SM CLR 33/22 A3000 RMK AO2 SLP154 T03280222 58019 TSNO

More Conditions Fewer Conditions

10-Day Weather Forecast

Almanac

Astronomy

Sep. 01, 2014 Rise Set
Actual Time 6:33 AM CDT 7:24 PM CDT
Civil Twilight 6:07 AM CDT 7:50 PM CDT
Nautical Twilight 5:37 AM CDT 8:20 PM CDT
Astronomical Twilight 5:06 AM CDT 8:50 PM CDT
Moon 12:59 PM CDT 11:45 PM CDT
Length of Visible Light 13h 42m
Length of Day
12h 51m
Tomorrow will be 2m 0s shorter.
Waxing Crescent, 44% of the Moon is Illuminated
Today
Waxing Crescent
Sep 2
First Quarter
Sep 8
Full
Sep 15
Last Quarter
Sep 24
New

Today's Extremes

State Highs State Lows

Community

WunderPhotos

Upload Photos

1,749,407 photos uploaded!

WunderBlogs® & News

Nearby

Snow Depth

Station Depth Elevation
No new snow has been reported.

Earthquake Activity

City Distance Mag. Time & Date
No recent earthquake activity has been reported nearby.
Minimum magnitude displayed is 2.5.

Coastal Water Temperatures

Place Temperature
No Stations Reporting

Nearby Weather Stations